createdAt,value
2022-09-25T00:00:24.334Z,1005.23
2022-09-25T00:01:24.382Z,1005.27
2022-09-25T00:02:24.343Z,1005.25
2022-09-25T00:03:24.304Z,1005.20
2022-09-25T00:04:24.288Z,1005.24
2022-09-25T00:05:24.264Z,1005.27
2022-09-25T00:06:24.279Z,1005.27
2022-09-25T00:07:24.251Z,1005.22
2022-09-25T00:08:24.238Z,1005.26
2022-09-25T00:09:24.223Z,1005.24
2022-09-25T00:10:24.219Z,1005.27
2022-09-25T00:11:24.204Z,1005.27
2022-09-25T00:12:24.229Z,1005.24
2022-09-25T00:13:24.174Z,1005.24
2022-09-25T00:14:24.191Z,1005.26
2022-09-25T00:15:24.152Z,1005.27
2022-09-25T00:16:24.203Z,1005.28
2022-09-25T00:17:24.129Z,1005.31
2022-09-25T00:18:24.136Z,1005.27
2022-09-25T00:19:24.115Z,1005.32
2022-09-25T00:20:24.134Z,1005.29
2022-09-25T00:21:24.084Z,1005.30
2022-09-25T00:22:24.071Z,1005.27
2022-09-25T00:23:24.070Z,1005.31
2022-09-25T00:24:24.068Z,1005.30
2022-09-25T00:25:24.046Z,1005.28
2022-09-25T00:26:24.038Z,1005.29
2022-09-25T00:27:24.027Z,1005.31
2022-09-25T00:28:24.025Z,1005.31
2022-09-25T00:29:24.021Z,1005.30
2022-09-25T00:30:23.983Z,1005.29
2022-09-25T00:31:24.030Z,1005.32
2022-09-25T00:32:23.970Z,1005.23
2022-09-25T00:33:23.952Z,1005.34
2022-09-25T00:34:23.948Z,1005.29
2022-09-25T00:35:23.932Z,1005.31
2022-09-25T00:36:23.922Z,1005.28
2022-09-25T00:37:23.908Z,1005.25
2022-09-25T00:38:23.889Z,1005.22
2022-09-25T00:39:23.886Z,1005.30
2022-09-25T00:40:23.944Z,1005.28
2022-09-25T00:41:23.856Z,1005.30
2022-09-25T00:42:23.865Z,1005.31
2022-09-25T00:43:23.831Z,1005.27
2022-09-25T00:44:23.852Z,1005.27
2022-09-25T00:45:23.809Z,1005.27
2022-09-25T00:46:23.938Z,1005.28
2022-09-25T00:47:23.785Z,1005.28
2022-09-25T00:48:23.796Z,1005.29
2022-09-25T00:49:23.788Z,1005.33
2022-09-25T00:50:23.752Z,1005.28
2022-09-25T00:51:23.770Z,1005.30
2022-09-25T00:52:23.737Z,1005.27
2022-09-25T00:53:23.732Z,1005.33
2022-09-25T00:54:23.722Z,1005.29
2022-09-25T00:55:23.718Z,1005.31
2022-09-25T00:56:23.694Z,1005.31
2022-09-25T00:57:23.671Z,1005.27
2022-09-25T00:58:23.668Z,1005.31
2022-09-25T00:59:23.672Z,1005.24
2022-09-25T01:00:23.671Z,1005.31
2022-09-25T01:01:23.726Z,1005.30
2022-09-25T01:02:23.717Z,1005.27
2022-09-25T01:03:23.614Z,1005.22
2022-09-25T01:04:23.598Z,1005.26
2022-09-25T01:05:23.594Z,1005.25
2022-09-25T01:06:23.580Z,1005.29
2022-09-25T01:07:23.563Z,1005.26
2022-09-25T01:08:23.547Z,1005.29
2022-09-25T01:09:23.556Z,1005.30
2022-09-25T01:10:23.546Z,1005.27
2022-09-25T01:11:23.521Z,1005.27
2022-09-25T01:12:23.502Z,1005.24
2022-09-25T01:13:23.502Z,1005.31
2022-09-25T01:14:23.476Z,1005.29
2022-09-25T01:15:23.465Z,1005.30
2022-09-25T01:16:23.567Z,1005.27
2022-09-25T01:17:23.448Z,1005.29
2022-09-25T01:18:23.440Z,1005.31
2022-09-25T01:19:23.426Z,1005.27
2022-09-25T01:20:23.423Z,1005.25
2022-09-25T01:21:23.421Z,1005.24
2022-09-25T01:22:23.391Z,1005.27
2022-09-25T01:23:23.377Z,1005.25
2022-09-25T01:24:23.381Z,1005.29
2022-09-25T01:25:23.376Z,1005.26
2022-09-25T01:26:23.355Z,1005.23
2022-09-25T01:27:23.339Z,1005.25
2022-09-25T01:28:23.317Z,1005.25
2022-09-25T01:29:23.314Z,1005.26
2022-09-25T01:30:23.295Z,1005.25
2022-09-25T01:31:23.396Z,1005.27
2022-09-25T01:32:23.324Z,1005.28
2022-09-25T01:33:23.270Z,1005.27
2022-09-25T01:34:23.255Z,1005.25
2022-09-25T01:35:23.240Z,1005.25
2022-09-25T01:36:23.225Z,1005.22
2022-09-25T01:37:23.226Z,1005.26
2022-09-25T01:38:23.217Z,1005.25
2022-09-25T01:39:23.221Z,1005.25
2022-09-25T01:40:23.319Z,1005.22
2022-09-25T01:41:23.197Z,1005.19
2022-09-25T01:42:23.166Z,1005.21
2022-09-25T01:43:23.157Z,1005.19
2022-09-25T01:44:23.142Z,1005.19
2022-09-25T01:45:23.164Z,1005.25
2022-09-25T01:46:23.169Z,1005.21
2022-09-25T01:47:23.109Z,1005.26
2022-09-25T01:48:23.113Z,1005.22
2022-09-25T01:49:23.091Z,1005.21
2022-09-25T01:50:23.067Z,1005.24
2022-09-25T01:51:23.057Z,1005.28
2022-09-25T01:52:23.045Z,1005.24
2022-09-25T01:53:23.037Z,1005.28
2022-09-25T01:54:23.027Z,1005.26
2022-09-25T01:55:23.039Z,1005.22
2022-09-25T01:56:23.001Z,1005.20
2022-09-25T01:57:23.022Z,1005.21
2022-09-25T01:58:22.978Z,1005.22
2022-09-25T01:59:22.977Z,1005.24
2022-09-25T02:00:22.959Z,1005.21
2022-09-25T02:01:23.058Z,1005.25
2022-09-25T02:02:23.074Z,1005.19
2022-09-25T02:03:22.927Z,1005.24
2022-09-25T02:04:22.930Z,1005.24
2022-09-25T02:05:22.906Z,1005.26
2022-09-25T02:06:22.897Z,1005.24
2022-09-25T02:07:22.885Z,1005.25
2022-09-25T02:08:22.868Z,1005.23
2022-09-25T02:09:22.857Z,1005.21
2022-09-25T02:10:22.845Z,1005.23
2022-09-25T02:11:22.845Z,1005.25
2022-09-25T02:12:22.823Z,1005.27
2022-09-25T02:13:22.820Z,1005.29
2022-09-25T02:14:22.800Z,1005.24
2022-09-25T02:15:22.779Z,1005.28
2022-09-25T02:16:22.822Z,1005.27
2022-09-25T02:17:22.773Z,1005.24
2022-09-25T02:18:22.754Z,1005.24
2022-09-25T02:19:22.737Z,1005.23
2022-09-25T02:20:22.752Z,1005.25
2022-09-25T02:21:22.720Z,1005.28
2022-09-25T02:22:22.734Z,1005.26
2022-09-25T02:23:22.690Z,1005.26
2022-09-25T02:24:22.681Z,1005.25
2022-09-25T02:25:22.668Z,1005.27
2022-09-25T02:26:22.673Z,1005.27
2022-09-25T02:27:22.659Z,1005.26
2022-09-25T02:28:22.642Z,1005.27
2022-09-25T02:29:22.619Z,1005.33
2022-09-25T02:30:22.687Z,1005.33
2022-09-25T02:31:22.605Z,1005.32
2022-09-25T02:32:22.594Z,1005.30
2022-09-25T02:33:22.581Z,1005.26
2022-09-25T02:34:22.571Z,1005.33
2022-09-25T02:35:22.564Z,1005.35
2022-09-25T02:36:22.572Z,1005.30
2022-09-25T02:37:22.558Z,1005.30
2022-09-25T02:38:22.522Z,1005.31
2022-09-25T02:39:22.534Z,1005.33
2022-09-25T02:40:22.606Z,1005.30
2022-09-25T02:41:22.503Z,1005.35
2022-09-25T02:42:22.500Z,1005.34
2022-09-25T02:43:22.476Z,1005.33
2022-09-25T02:44:22.451Z,1005.39
2022-09-25T02:45:22.475Z,1005.34
2022-09-25T02:46:22.493Z,1005.31
2022-09-25T02:47:22.435Z,1005.32
2022-09-25T02:48:22.421Z,1005.36
2022-09-25T02:49:22.401Z,1005.36
2022-09-25T02:50:22.393Z,1005.35
2022-09-25T02:51:22.387Z,1005.31
2022-09-25T02:52:22.389Z,1005.35
2022-09-25T02:53:22.351Z,1005.36
2022-09-25T02:54:22.345Z,1005.39
2022-09-25T02:55:22.343Z,1005.44
2022-09-25T02:56:22.311Z,1005.37
2022-09-25T02:57:22.316Z,1005.38
2022-09-25T02:58:22.289Z,1005.40
2022-09-25T02:59:22.291Z,1005.36
2022-09-25T03:00:22.285Z,1005.38
2022-09-25T03:01:22.404Z,1005.37
2022-09-25T03:02:22.310Z,1005.34
2022-09-25T03:03:22.245Z,1005.35
2022-09-25T03:04:22.225Z,1005.37
2022-09-25T03:05:22.214Z,1005.36
2022-09-25T03:06:22.221Z,1005.33
2022-09-25T03:07:22.187Z,1005.35
2022-09-25T03:08:22.201Z,1005.32
2022-09-25T03:09:22.168Z,1005.34
2022-09-25T03:10:22.164Z,1005.37
2022-09-25T03:11:22.144Z,1005.26
2022-09-25T03:12:22.147Z,1005.31
2022-09-25T03:13:22.127Z,1005.37
2022-09-25T03:14:22.118Z,1005.34
2022-09-25T03:15:22.109Z,1005.38
2022-09-25T03:16:22.188Z,1005.36
2022-09-25T03:17:22.096Z,1005.39
2022-09-25T03:18:22.068Z,1005.39
2022-09-25T03:19:22.122Z,1005.37
2022-09-25T03:20:22.040Z,1005.41
2022-09-25T03:21:22.026Z,1005.40
2022-09-25T03:22:22.021Z,1005.41
2022-09-25T03:23:22.005Z,1005.42
2022-09-25T03:24:22.018Z,1005.40
2022-09-25T03:25:22.000Z,1005.41
2022-09-25T03:26:21.978Z,1005.42
2022-09-25T03:27:21.959Z,1005.43
2022-09-25T03:28:21.947Z,1005.45
2022-09-25T03:29:21.945Z,1005.42
2022-09-25T03:30:21.936Z,1005.45
2022-09-25T03:31:22.012Z,1005.43
2022-09-25T03:32:21.909Z,1005.50
2022-09-25T03:33:21.896Z,1005.42
2022-09-25T03:34:21.886Z,1005.38
2022-09-25T03:35:21.879Z,1005.43
2022-09-25T03:36:21.874Z,1005.43
2022-09-25T03:37:21.857Z,1005.38
2022-09-25T03:38:21.834Z,1005.45
2022-09-25T03:39:21.833Z,1005.39
2022-09-25T03:40:21.987Z,1005.41
2022-09-25T03:41:21.810Z,1005.35
2022-09-25T03:42:21.806Z,1005.34
2022-09-25T03:43:21.776Z,1005.36
2022-09-25T03:44:21.770Z,1005.33
2022-09-25T03:45:21.853Z,1005.33
2022-09-25T03:46:21.877Z,1005.34
2022-09-25T03:47:21.749Z,1005.34
2022-09-25T03:48:21.717Z,1005.34
2022-09-25T03:49:21.724Z,1005.39
2022-09-25T03:50:21.696Z,1005.34
2022-09-25T03:51:21.683Z,1005.34
2022-09-25T03:52:21.678Z,1005.33
2022-09-25T03:53:21.659Z,1005.31
2022-09-25T03:54:21.664Z,1005.33
2022-09-25T03:55:21.637Z,1005.37
2022-09-25T03:56:21.662Z,1005.34
2022-09-25T03:57:21.615Z,1005.33
2022-09-25T03:58:21.624Z,1005.38
2022-09-25T03:59:21.599Z,1005.34
2022-09-25T04:00:21.588Z,1005.34
2022-09-25T04:01:21.608Z,1005.34
2022-09-25T04:02:21.668Z,1005.33
2022-09-25T04:03:21.569Z,1005.32
2022-09-25T04:04:21.551Z,1005.35
2022-09-25T04:05:21.542Z,1005.33
2022-09-25T04:06:21.546Z,1005.35
2022-09-25T04:07:21.512Z,1005.33
2022-09-25T04:08:21.507Z,1005.30
2022-09-25T04:09:21.556Z,1005.29
2022-09-25T04:10:21.480Z,1005.33
2022-09-25T04:11:21.453Z,1005.33
2022-09-25T04:12:21.495Z,1005.37
2022-09-25T04:13:21.469Z,1005.35
2022-09-25T04:14:21.455Z,1005.32
2022-09-25T04:15:21.415Z,1005.35
2022-09-25T04:16:21.667Z,1005.34
2022-09-25T04:17:21.385Z,1005.32
2022-09-25T04:18:21.384Z,1005.35
2022-09-25T04:19:21.403Z,1005.39
2022-09-25T04:20:21.353Z,1005.32
2022-09-25T04:21:21.356Z,1005.34
2022-09-25T04:22:21.337Z,1005.33
2022-09-25T04:23:21.328Z,1005.34
2022-09-25T04:24:21.304Z,1005.29
2022-09-25T04:25:24.402Z,1005.37
2022-09-25T04:26:21.300Z,1005.31
2022-09-25T04:27:21.285Z,1005.32
2022-09-25T04:28:21.284Z,1005.34
2022-09-25T04:29:21.262Z,1005.35
2022-09-25T04:30:21.242Z,1005.36
2022-09-25T04:31:21.311Z,1005.39
2022-09-25T04:32:21.233Z,1005.42
2022-09-25T04:33:21.206Z,1005.32
2022-09-25T04:34:21.193Z,1005.36
2022-09-25T04:35:21.251Z,1005.37
2022-09-25T04:36:21.182Z,1005.38
2022-09-25T04:37:21.170Z,1005.37
2022-09-25T04:38:21.148Z,1005.36
2022-09-25T04:39:21.142Z,1005.31
2022-09-25T04:40:21.197Z,1005.38
2022-09-25T04:41:21.114Z,1005.33
2022-09-25T04:42:21.103Z,1005.32
2022-09-25T04:43:21.107Z,1005.33
2022-09-25T04:44:21.190Z,1005.33
2022-09-25T04:45:21.066Z,1005.32
2022-09-25T04:46:22.701Z,1005.36
2022-09-25T04:47:21.070Z,1005.37
2022-09-25T04:48:21.033Z,1005.33
2022-09-25T04:49:21.023Z,1005.36
2022-09-25T04:50:21.044Z,1005.38
2022-09-25T04:51:21.003Z,1005.40
2022-09-25T04:52:20.995Z,1005.42
2022-09-25T04:53:20.996Z,1005.38
2022-09-25T04:54:20.975Z,1005.44
2022-09-25T04:55:20.974Z,1005.40
2022-09-25T04:56:20.955Z,1005.38
2022-09-25T04:57:39.129Z,1005.40
2022-09-25T04:58:21.942Z,1005.39
2022-09-25T04:59:20.913Z,1005.43
2022-09-25T05:00:20.919Z,1005.41
2022-09-25T05:01:21.045Z,1005.42
2022-09-25T05:02:20.968Z,1005.38
2022-09-25T05:03:21.148Z,1005.44
2022-09-25T05:04:20.858Z,1005.43
2022-09-25T05:05:20.851Z,1005.40
2022-09-25T05:06:20.842Z,1005.47
2022-09-25T05:07:20.824Z,1005.48
2022-09-25T05:08:20.813Z,1005.48
2022-09-25T05:09:20.812Z,1005.50
2022-09-25T05:10:20.804Z,1005.50
2022-09-25T05:11:20.801Z,1005.51
2022-09-25T05:12:20.764Z,1005.54
2022-09-25T05:13:20.763Z,1005.54
2022-09-25T05:14:20.737Z,1005.55
2022-09-25T05:15:20.762Z,1005.58
2022-09-25T05:16:20.865Z,1005.57
2022-09-25T05:17:20.699Z,1005.59
2022-09-25T05:18:20.700Z,1005.59
2022-09-25T05:19:20.679Z,1005.60
2022-09-25T05:20:20.674Z,1005.64
2022-09-25T05:21:20.661Z,1005.58
2022-09-25T05:22:20.672Z,1005.66
2022-09-25T05:23:20.646Z,1005.72
2022-09-25T05:24:20.633Z,1005.66
2022-09-25T05:25:20.622Z,1005.66
2022-09-25T05:26:20.603Z,1005.64
2022-09-25T05:27:20.599Z,1005.71
2022-09-25T05:28:20.593Z,1005.70
2022-09-25T05:29:20.573Z,1005.66
2022-09-25T05:30:20.559Z,1005.73
2022-09-25T05:31:20.592Z,1005.77
2022-09-25T05:32:20.559Z,1005.69
2022-09-25T05:33:20.529Z,1005.75
2022-09-25T05:34:20.516Z,1005.74
2022-09-25T05:35:20.495Z,1005.73
2022-09-25T05:36:20.485Z,1005.74
2022-09-25T05:37:20.494Z,1005.74
2022-09-25T05:38:20.473Z,1005.78
2022-09-25T05:39:20.475Z,1005.75
2022-09-25T05:40:20.497Z,1005.78
2022-09-25T05:41:20.428Z,1005.75
2022-09-25T05:42:20.423Z,1005.78
2022-09-25T05:43:20.402Z,1005.79
2022-09-25T05:44:20.396Z,1005.79
2022-09-25T05:45:20.403Z,1005.78
2022-09-25T05:46:20.483Z,1005.75
2022-09-25T05:47:20.381Z,1005.80
2022-09-25T05:48:20.369Z,1005.75
2022-09-25T05:49:20.358Z,1005.73
2022-09-25T05:50:20.337Z,1005.75
2022-09-25T05:51:20.318Z,1005.76
2022-09-25T05:52:20.313Z,1005.76
2022-09-25T05:53:20.291Z,1005.73
2022-09-25T05:54:20.298Z,1005.81
2022-09-25T05:55:20.281Z,1005.83
2022-09-25T05:56:20.253Z,1005.76
2022-09-25T05:57:20.243Z,1005.79
2022-09-25T05:58:20.233Z,1005.75
2022-09-25T05:59:20.224Z,1005.75
2022-09-25T06:00:20.234Z,1005.73
2022-09-25T06:01:20.205Z,1005.73
2022-09-25T06:02:20.251Z,1005.71
2022-09-25T06:03:20.223Z,1005.69
2022-09-25T06:04:20.187Z,1005.74
2022-09-25T06:05:20.178Z,1005.75
2022-09-25T06:06:23.828Z,1005.75
2022-09-25T06:07:21.135Z,1005.74
2022-09-25T06:08:20.130Z,1005.75
2022-09-25T06:09:20.119Z,1005.73
2022-09-25T06:10:20.098Z,1005.73
2022-09-25T06:11:20.089Z,1005.73
2022-09-25T06:12:20.080Z,1005.75
2022-09-25T06:13:20.065Z,1005.74
2022-09-25T06:14:20.071Z,1005.75
2022-09-25T06:15:20.036Z,1005.73
2022-09-25T06:16:20.112Z,1005.75
2022-09-25T06:17:20.012Z,1005.75
2022-09-25T06:18:20.011Z,1005.76
2022-09-25T06:19:19.996Z,1005.71
2022-09-25T06:20:20.015Z,1005.77
2022-09-25T06:21:19.971Z,1005.74
2022-09-25T06:22:20.022Z,1005.79
2022-09-25T06:23:19.952Z,1005.74
2022-09-25T06:24:19.932Z,1005.82
2022-09-25T06:25:19.935Z,1005.77
2022-09-25T06:26:19.915Z,1005.78
2022-09-25T06:27:19.909Z,1005.77
2022-09-25T06:28:19.904Z,1005.83
2022-09-25T06:29:19.879Z,1005.79
2022-09-25T06:30:19.875Z,1005.84
2022-09-25T06:31:19.931Z,1005.84
2022-09-25T06:32:19.840Z,1005.89
2022-09-25T06:33:19.847Z,1005.87
2022-09-25T06:34:19.828Z,1005.87
2022-09-25T06:35:19.842Z,1005.86
2022-09-25T06:36:19.827Z,1005.84
2022-09-25T06:37:19.806Z,1005.85
2022-09-25T06:38:19.782Z,1005.88
2022-09-25T06:39:19.777Z,1005.88
2022-09-25T06:40:19.817Z,1005.88
2022-09-25T06:41:19.776Z,1005.86
2022-09-25T06:42:19.729Z,1005.88
2022-09-25T06:43:19.727Z,1005.92
2022-09-25T06:44:19.721Z,1005.93
2022-09-25T06:45:19.702Z,1005.92
2022-09-25T06:46:19.756Z,1005.96
2022-09-25T06:47:23.504Z,1005.98
2022-09-25T06:48:20.670Z,1005.95
2022-09-25T06:49:19.647Z,1005.97
2022-09-25T06:50:19.684Z,1005.99
2022-09-25T06:51:19.622Z,1005.99
2022-09-25T06:52:19.637Z,1006.03
2022-09-25T06:53:19.607Z,1006.00
2022-09-25T06:54:19.617Z,1006.03
2022-09-25T06:55:19.592Z,1006.03
2022-09-25T06:56:19.594Z,1006.05
2022-09-25T06:57:19.564Z,1006.04
2022-09-25T06:58:19.590Z,1006.08
2022-09-25T06:59:19.539Z,1006.08
2022-09-25T07:00:19.544Z,1006.07
2022-09-25T07:01:19.570Z,1006.07
2022-09-25T07:02:19.702Z,1006.08
2022-09-25T07:03:19.494Z,1006.11
2022-09-25T07:04:19.475Z,1006.12
2022-09-25T07:05:19.462Z,1006.09
2022-09-25T07:06:19.463Z,1006.07
2022-09-25T07:07:19.441Z,1006.02
2022-09-25T07:08:19.453Z,1006.03
2022-09-25T07:09:19.441Z,1006.05
2022-09-25T07:10:19.409Z,1006.08
2022-09-25T07:11:19.401Z,1006.04
2022-09-25T07:12:19.400Z,1006.10
2022-09-25T07:13:19.373Z,1006.07
2022-09-25T07:14:19.372Z,1006.10
2022-09-25T07:15:19.361Z,1006.09
2022-09-25T07:16:19.410Z,1006.09
2022-09-25T07:17:19.329Z,1006.07
2022-09-25T07:18:19.314Z,1006.10
2022-09-25T07:19:19.311Z,1006.10
2022-09-25T07:20:19.295Z,1006.13
2022-09-25T07:21:19.350Z,1006.13
2022-09-25T07:22:19.288Z,1006.14
2022-09-25T07:23:19.265Z,1006.14
2022-09-25T07:24:19.268Z,1006.07
2022-09-25T07:25:19.251Z,1006.12
2022-09-25T07:26:19.233Z,1006.08
2022-09-25T07:27:19.222Z,1006.15
2022-09-25T07:28:19.210Z,1006.09
2022-09-25T07:29:19.200Z,1006.12
2022-09-25T07:30:19.178Z,1006.11
2022-09-25T07:31:19.361Z,1006.11
2022-09-25T07:32:19.161Z,1006.12
2022-09-25T07:33:19.145Z,1006.10
2022-09-25T07:34:19.149Z,1006.09
2022-09-25T07:35:19.131Z,1006.12
2022-09-25T07:36:19.114Z,1006.13
2022-09-25T07:37:19.109Z,1006.10
2022-09-25T07:38:19.086Z,1006.11
2022-09-25T07:39:19.085Z,1006.16
2022-09-25T07:40:19.172Z,1006.15
2022-09-25T07:41:19.058Z,1006.18
2022-09-25T07:42:19.060Z,1006.22
2022-09-25T07:43:19.037Z,1006.20
2022-09-25T07:44:38.267Z,1006.19
2022-09-25T07:45:20.010Z,1006.23
2022-09-25T07:46:19.075Z,1006.19
2022-09-25T07:47:18.991Z,1006.20
2022-09-25T07:48:18.974Z,1006.23
2022-09-25T07:49:18.967Z,1006.24
2022-09-25T07:50:18.949Z,1006.23
2022-09-25T07:51:18.951Z,1006.29
2022-09-25T07:52:18.945Z,1006.22
2022-09-25T07:53:18.919Z,1006.22
2022-09-25T07:54:18.910Z,1006.20
2022-09-25T07:55:18.902Z,1006.27
2022-09-25T07:56:18.915Z,1006.18
2022-09-25T07:57:18.877Z,1006.22
2022-09-25T07:58:18.868Z,1006.24
2022-09-25T07:59:18.861Z,1006.21
2022-09-25T08:00:18.837Z,1006.24
2022-09-25T08:01:18.917Z,1006.26
2022-09-25T08:02:18.985Z,1006.25
2022-09-25T08:03:18.824Z,1006.24
2022-09-25T08:04:18.802Z,1006.22
2022-09-25T08:05:18.787Z,1006.24
2022-09-25T08:06:18.768Z,1006.23
2022-09-25T08:07:18.784Z,1006.21
2022-09-25T08:08:18.755Z,1006.16
2022-09-25T08:09:18.739Z,1006.23
2022-09-25T08:10:18.743Z,1006.27
2022-09-25T08:11:18.714Z,1006.22
2022-09-25T08:12:18.830Z,1006.27
2022-09-25T08:13:18.702Z,1006.26
2022-09-25T08:14:21.227Z,1006.32
2022-09-25T08:15:19.664Z,1006.28
2022-09-25T08:16:18.804Z,1006.30
2022-09-25T08:17:18.650Z,1006.26
2022-09-25T08:18:18.647Z,1006.28
2022-09-25T08:19:18.626Z,1006.33
2022-09-25T08:20:18.622Z,1006.31
2022-09-25T08:21:18.611Z,1006.39
2022-09-25T08:22:18.592Z,1006.31
2022-09-25T08:23:18.594Z,1006.36
2022-09-25T08:24:18.580Z,1006.32
2022-09-25T08:25:18.563Z,1006.31
2022-09-25T08:26:18.538Z,1006.32
2022-09-25T08:27:18.529Z,1006.34
2022-09-25T08:28:18.552Z,1006.36
2022-09-25T08:29:18.542Z,1006.33
2022-09-25T08:30:18.509Z,1006.33
2022-09-25T08:31:18.600Z,1006.36
2022-09-25T08:32:18.476Z,1006.35
2022-09-25T08:33:18.466Z,1006.31
2022-09-25T08:34:40.215Z,1006.45
2022-09-25T08:35:19.442Z,1006.35
2022-09-25T08:36:18.425Z,1006.32
2022-09-25T08:37:18.422Z,1006.39
2022-09-25T08:38:18.403Z,1006.34
2022-09-25T08:39:18.393Z,1006.37
2022-09-25T08:40:18.445Z,1006.41
2022-09-25T08:41:18.386Z,1006.40
2022-09-25T08:42:18.357Z,1006.43
2022-09-25T08:43:18.373Z,1006.42
2022-09-25T08:44:18.364Z,1006.48
2022-09-25T08:45:21.501Z,1006.49
2022-09-25T08:46:18.402Z,1006.52
2022-09-25T08:47:19.693Z,1006.51
2022-09-25T08:48:18.305Z,1006.53
2022-09-25T08:49:18.314Z,1006.58
2022-09-25T08:50:18.280Z,1006.55
2022-09-25T08:51:18.259Z,1006.56
2022-09-25T08:52:18.252Z,1006.53
2022-09-25T08:53:18.246Z,1006.57
2022-09-25T08:54:18.229Z,1006.53
2022-09-25T08:55:18.227Z,1006.54
2022-09-25T08:56:18.204Z,1006.52
2022-09-25T08:57:18.196Z,1006.59
2022-09-25T08:58:18.185Z,1006.60
2022-09-25T08:59:18.182Z,1006.57
2022-09-25T09:00:18.227Z,1006.59
2022-09-25T09:01:18.221Z,1006.60
2022-09-25T09:02:18.219Z,1006.58
2022-09-25T09:03:18.137Z,1006.58
2022-09-25T09:04:18.122Z,1006.55
2022-09-25T09:05:18.103Z,1006.61
2022-09-25T09:06:18.099Z,1006.61
2022-09-25T09:07:27.358Z,1006.58
2022-09-25T09:08:19.076Z,1006.55
2022-09-25T09:09:18.053Z,1006.60
2022-09-25T09:10:18.114Z,1006.57
2022-09-25T09:11:18.048Z,1006.60
2022-09-25T09:12:18.042Z,1006.60
2022-09-25T09:13:18.020Z,1006.62
2022-09-25T09:14:18.017Z,1006.58
2022-09-25T09:15:18.009Z,1006.59
2022-09-25T09:16:18.160Z,1006.64
2022-09-25T09:17:17.980Z,1006.51
2022-09-25T09:18:17.970Z,1006.56
2022-09-25T09:19:17.944Z,1006.55
2022-09-25T09:20:18.052Z,1006.61
2022-09-25T09:21:17.930Z,1006.56
2022-09-25T09:22:17.959Z,1006.59
2022-09-25T09:23:17.914Z,1006.58
2022-09-25T09:24:17.892Z,1006.64
2022-09-25T09:25:17.890Z,1006.65
2022-09-25T09:26:17.869Z,1006.67
2022-09-25T09:27:17.894Z,1006.76
2022-09-25T09:28:17.845Z,1006.64
2022-09-25T09:29:17.827Z,1006.69
2022-09-25T09:30:17.944Z,1006.76
2022-09-25T09:31:17.915Z,1006.67
2022-09-25T09:32:17.910Z,1006.67
2022-09-25T09:33:17.806Z,1006.72
2022-09-25T09:34:17.780Z,1006.64
2022-09-25T09:35:17.792Z,1006.65
2022-09-25T09:36:17.769Z,1006.62
2022-09-25T09:37:17.740Z,1006.63
2022-09-25T09:38:17.728Z,1006.63
2022-09-25T09:39:17.734Z,1006.64
2022-09-25T09:40:17.850Z,1006.65
2022-09-25T09:41:17.692Z,1006.66
2022-09-25T09:42:17.688Z,1006.66
2022-09-25T09:43:17.684Z,1006.61
2022-09-25T09:44:17.659Z,1006.62
2022-09-25T09:45:17.650Z,1006.55
2022-09-25T09:46:17.698Z,1006.56
2022-09-25T09:47:17.651Z,1006.58
2022-09-25T09:48:17.646Z,1006.59
2022-09-25T09:49:17.620Z,1006.56
2022-09-25T09:50:17.608Z,1006.59
2022-09-25T09:51:17.595Z,1006.55
2022-09-25T09:52:17.638Z,1006.56
2022-09-25T09:53:17.568Z,1006.57
2022-09-25T09:54:17.553Z,1006.53
2022-09-25T09:55:17.553Z,1006.49
2022-09-25T09:56:17.522Z,1006.51
2022-09-25T09:57:17.516Z,1006.53
2022-09-25T09:58:17.500Z,1006.50
2022-09-25T09:59:17.500Z,1006.53
2022-09-25T10:00:17.506Z,1006.48
2022-09-25T10:01:37.011Z,1006.47
2022-09-25T10:02:18.695Z,1006.47
2022-09-25T10:03:17.546Z,1006.46
2022-09-25T10:04:17.545Z,1006.45
2022-09-25T10:05:17.433Z,1006.47
2022-09-25T10:06:22.406Z,1006.42
2022-09-25T10:07:18.417Z,1006.41
2022-09-25T10:08:17.406Z,1006.46
2022-09-25T10:09:17.397Z,1006.43
2022-09-25T10:10:17.368Z,1006.44
2022-09-25T10:11:17.356Z,1006.40
2022-09-25T10:12:17.344Z,1006.40
2022-09-25T10:13:17.341Z,1006.37
2022-09-25T10:14:17.336Z,1006.39
2022-09-25T10:15:17.315Z,1006.36
2022-09-25T10:16:17.378Z,1006.36
2022-09-25T10:17:17.288Z,1006.33
2022-09-25T10:18:17.290Z,1006.30
2022-09-25T10:19:17.264Z,1006.27
2022-09-25T10:20:17.276Z,1006.24
2022-09-25T10:21:17.251Z,1006.21
2022-09-25T10:22:17.441Z,1006.19
2022-09-25T10:23:17.241Z,1006.20
2022-09-25T10:24:17.228Z,1006.23
2022-09-25T10:25:17.210Z,1006.28
2022-09-25T10:26:17.195Z,1006.22
2022-09-25T10:27:17.191Z,1006.20
2022-09-25T10:28:17.173Z,1006.20
2022-09-25T10:29:17.152Z,1006.19
2022-09-25T10:30:17.163Z,1006.19
2022-09-25T10:31:17.171Z,1006.20
2022-09-25T10:32:17.127Z,1006.23
2022-09-25T10:33:17.111Z,1006.25
2022-09-25T10:34:17.097Z,1006.19
2022-09-25T10:35:17.090Z,1006.23
2022-09-25T10:36:17.198Z,1006.23
2022-09-25T10:37:17.083Z,1006.26
2022-09-25T10:38:17.057Z,1006.19
2022-09-25T10:39:42.365Z,1006.26
2022-09-25T10:40:18.083Z,1006.24
2022-09-25T10:41:17.018Z,1006.30
2022-09-25T10:42:17.032Z,1006.27
2022-09-25T10:43:17.004Z,1006.24
2022-09-25T10:44:17.004Z,1006.19
2022-09-25T10:45:16.996Z,1006.21
2022-09-25T10:46:17.052Z,1006.22
2022-09-25T10:47:16.956Z,1006.22
2022-09-25T10:48:16.958Z,1006.20
2022-09-25T10:49:16.936Z,1006.22
2022-09-25T10:50:16.924Z,1006.23
2022-09-25T10:51:16.930Z,1006.26
2022-09-25T10:52:16.917Z,1006.27
2022-09-25T10:53:16.889Z,1006.25
2022-09-25T10:54:16.871Z,1006.24
2022-09-25T10:55:16.989Z,1006.25
2022-09-25T10:56:16.855Z,1006.23
2022-09-25T10:57:16.869Z,1006.28
2022-09-25T10:58:16.841Z,1006.27
2022-09-25T10:59:16.983Z,1006.20
2022-09-25T11:00:16.811Z,1006.22
2022-09-25T11:01:16.848Z,1006.24
2022-09-25T11:02:16.917Z,1006.24
2022-09-25T11:03:17.478Z,1006.24
2022-09-25T11:04:16.757Z,1006.24
2022-09-25T11:05:16.754Z,1006.20
2022-09-25T11:06:16.749Z,1006.20
2022-09-25T11:07:16.737Z,1006.17
2022-09-25T11:08:16.734Z,1006.15
2022-09-25T11:09:16.703Z,1006.15
2022-09-25T11:10:16.703Z,1006.14
2022-09-25T11:11:16.685Z,1006.15
2022-09-25T11:12:16.704Z,1006.14
2022-09-25T11:13:16.677Z,1006.18
2022-09-25T11:14:16.644Z,1006.17
2022-09-25T11:15:16.632Z,1006.17
2022-09-25T11:16:16.735Z,1006.20
2022-09-25T11:17:16.632Z,1006.21
2022-09-25T11:18:16.608Z,1006.17
2022-09-25T11:19:16.794Z,1006.16
2022-09-25T11:20:16.800Z,1006.13
2022-09-25T11:21:16.573Z,1006.15
2022-09-25T11:22:16.558Z,1006.13
2022-09-25T11:23:16.559Z,1006.17
2022-09-25T11:24:16.675Z,1006.21
2022-09-25T11:25:16.550Z,1006.21
2022-09-25T11:26:16.524Z,1006.20
2022-09-25T11:27:16.499Z,1006.17
2022-09-25T11:28:16.492Z,1006.22
2022-09-25T11:29:16.588Z,1006.26
2022-09-25T11:30:16.479Z,1006.13
2022-09-25T11:31:16.505Z,1006.12
2022-09-25T11:32:16.456Z,1006.18
2022-09-25T11:33:16.432Z,1006.18
2022-09-25T11:34:16.419Z,1006.15
2022-09-25T11:35:16.418Z,1006.15
2022-09-25T11:36:16.412Z,1006.13
2022-09-25T11:37:16.392Z,1006.08
2022-09-25T11:38:16.401Z,1006.11
2022-09-25T11:39:16.403Z,1006.07
2022-09-25T11:40:16.559Z,1006.11
2022-09-25T11:41:16.358Z,1006.09
2022-09-25T11:42:16.351Z,1006.09
2022-09-25T11:43:16.331Z,1006.14
2022-09-25T11:44:16.314Z,1006.05
2022-09-25T11:45:16.320Z,1006.04
2022-09-25T11:46:16.324Z,1006.06
2022-09-25T11:47:16.273Z,1006.07
2022-09-25T11:48:16.268Z,1006.08
2022-09-25T11:49:16.630Z,1006.02
2022-09-25T11:50:16.257Z,1006.08
2022-09-25T11:51:16.235Z,1006.04
2022-09-25T11:52:16.224Z,1006.04
2022-09-25T11:53:16.205Z,1006.06
2022-09-25T11:54:32.430Z,1005.97
2022-09-25T11:55:17.186Z,1006.00
2022-09-25T11:56:16.283Z,1006.00
2022-09-25T11:57:16.174Z,1006.05
2022-09-25T11:58:16.161Z,1005.96
2022-09-25T11:59:16.138Z,1005.98
2022-09-25T12:00:16.138Z,1006.02
2022-09-25T12:01:16.188Z,1005.93
2022-09-25T12:02:16.165Z,1005.89
2022-09-25T12:03:16.098Z,1005.89
2022-09-25T12:04:16.093Z,1005.90
2022-09-25T12:05:16.076Z,1005.95